createdAt,value
2018-08-07T00:01:53.108Z,8.80
2018-08-07T00:04:27.731Z,8.30
2018-08-07T00:06:57.905Z,7.50
2018-08-07T00:09:41.360Z,9.17
2018-08-07T00:12:09.183Z,9.07
2018-08-07T00:14:37.730Z,8.77
2018-08-07T00:17:04.739Z,9.10
2018-08-07T00:19:31.647Z,8.93
2018-08-07T00:21:58.655Z,9.50
2018-08-07T00:24:26.215Z,8.40
2018-08-07T00:26:53.227Z,8.07
2018-08-07T00:29:20.231Z,8.40
2018-08-07T00:31:48.327Z,9.27
2018-08-07T00:34:15.268Z,8.70
2018-08-07T00:36:42.240Z,7.97
2018-08-07T00:39:10.507Z,7.80
2018-08-07T00:41:37.675Z,8.27
2018-08-07T00:44:04.635Z,9.27
2018-08-07T00:46:32.194Z,8.80
2018-08-07T00:48:59.190Z,8.00
2018-08-07T00:51:26.115Z,8.30
2018-08-07T00:53:53.114Z,8.30
2018-08-07T00:56:26.579Z,8.13
2018-08-07T00:58:56.082Z,6.53
2018-08-07T01:01:26.195Z,7.97
2018-08-07T01:04:02.326Z,6.93
2018-08-07T01:06:37.862Z,7.93
2018-08-07T01:09:17.829Z,7.60
2018-08-07T01:11:46.887Z,6.30
2018-08-07T01:14:18.248Z,7.43
2018-08-07T01:16:46.731Z,7.37
2018-08-07T01:19:14.174Z,7.10
2018-08-07T01:21:41.854Z,7.47
2018-08-07T01:24:08.803Z,5.60
2018-08-07T01:26:35.772Z,6.27
2018-08-07T01:29:02.730Z,5.40
2018-08-07T01:31:29.672Z,6.13
2018-08-07T01:33:56.623Z,5.27
2018-08-07T01:36:23.591Z,4.63
2018-08-07T01:38:50.564Z,5.00
2018-08-07T01:41:27.222Z,6.10
2018-08-07T01:44:05.635Z,5.40
2018-08-07T01:46:41.899Z,7.10
2018-08-07T01:49:08.890Z,6.60
2018-08-07T01:51:35.843Z,5.70
2018-08-07T01:54:02.807Z,6.70
2018-08-07T01:56:29.746Z,7.00
2018-08-07T01:58:56.776Z,7.27
2018-08-07T02:01:24.210Z,6.60
2018-08-07T02:03:51.173Z,6.63
2018-08-07T02:06:20.495Z,7.13
2018-08-07T02:08:59.347Z,6.50
2018-08-07T02:11:37.883Z,6.40
2018-08-07T02:14:07.136Z,6.00
2018-08-07T02:16:34.301Z,7.00
2018-08-07T02:19:01.276Z,6.60
2018-08-07T02:21:28.723Z,6.60
2018-08-07T02:23:55.678Z,8.10
2018-08-07T02:26:23.716Z,6.70
2018-08-07T02:28:51.485Z,6.23
2018-08-07T02:31:26.399Z,6.63
2018-08-07T02:34:01.632Z,6.27
2018-08-07T02:36:30.011Z,6.13
2018-08-07T02:39:06.481Z,6.03
2018-08-07T02:41:35.876Z,5.50
2018-08-07T02:44:05.143Z,6.17
2018-08-07T02:46:32.137Z,7.27
2018-08-07T02:49:01.186Z,7.30
2018-08-07T02:51:28.778Z,6.70
2018-08-07T02:53:55.799Z,6.83
2018-08-07T02:56:22.831Z,7.00
2018-08-07T02:58:51.088Z,7.00
2018-08-07T03:01:18.067Z,6.97
2018-08-07T03:03:45.020Z,7.40
2018-08-07T03:06:12.195Z,7.10
2018-08-07T03:08:40.764Z,6.47
2018-08-07T03:11:11.430Z,6.93
2018-08-07T03:13:39.280Z,7.27
2018-08-07T03:16:07.207Z,6.90
2018-08-07T03:18:41.297Z,6.77
2018-08-07T03:21:11.515Z,7.70
2018-08-07T03:23:38.491Z,7.40
2018-08-07T03:26:05.438Z,7.20
2018-08-07T03:28:32.400Z,7.03
2018-08-07T03:30:59.449Z,7.03
2018-08-07T03:33:26.383Z,7.70
2018-08-07T03:35:53.375Z,8.23
2018-08-07T03:38:20.334Z,6.93
2018-08-07T03:40:48.315Z,6.50
2018-08-07T03:43:15.231Z,6.60
2018-08-07T03:45:42.923Z,6.80
2018-08-07T03:48:11.843Z,6.80
2018-08-07T03:50:39.827Z,6.87
2018-08-07T03:53:19.107Z,7.13
2018-08-07T03:55:58.608Z,7.07
2018-08-07T03:58:33.251Z,7.40
2018-08-07T04:01:02.906Z,6.67
2018-08-07T04:03:29.843Z,7.60
2018-08-07T04:05:56.781Z,7.50
2018-08-07T04:08:23.746Z,6.33
2018-08-07T04:10:50.707Z,6.53
2018-08-07T04:13:17.664Z,6.77
2018-08-07T04:15:44.618Z,6.67
2018-08-07T04:18:11.579Z,8.10
2018-08-07T04:20:38.531Z,7.37
2018-08-07T04:23:05.498Z,7.70
2018-08-07T04:25:32.466Z,7.70
2018-08-07T04:27:59.415Z,7.50
2018-08-07T04:30:27.399Z,7.50
2018-08-07T04:32:54.370Z,7.43
2018-08-07T04:35:21.307Z,8.00
2018-08-07T04:37:48.370Z,7.43
2018-08-07T04:40:15.315Z,6.80
2018-08-07T04:42:42.364Z,7.03
2018-08-07T04:45:12.190Z,8.07
2018-08-07T04:47:39.169Z,7.73
2018-08-07T04:50:08.051Z,7.13
2018-08-07T04:52:35.463Z,7.77
2018-08-07T04:55:02.383Z,6.90
2018-08-07T04:57:29.896Z,7.10
2018-08-07T04:59:56.819Z,7.63
2018-08-07T05:02:23.773Z,8.20
2018-08-07T05:04:50.751Z,7.30
2018-08-07T05:07:17.682Z,7.77
2018-08-07T05:09:45.678Z,7.40
2018-08-07T05:12:13.663Z,10.00
2018-08-07T05:14:40.607Z,7.70
2018-08-07T05:17:08.379Z,7.80
2018-08-07T05:19:35.356Z,7.43
2018-08-07T05:22:02.336Z,8.53
2018-08-07T05:24:30.332Z,6.37
2018-08-07T05:26:57.255Z,6.70
2018-08-07T05:29:24.421Z,7.80
2018-08-07T05:31:51.359Z,6.90
2018-08-07T05:34:19.957Z,7.50
2018-08-07T05:36:58.156Z,7.80
2018-08-07T05:39:45.171Z,6.30
2018-08-07T05:42:13.326Z,6.30
2018-08-07T05:44:48.892Z,7.20
2018-08-07T05:47:32.587Z,6.20
2018-08-07T05:49:59.675Z,6.43
2018-08-07T05:52:29.633Z,6.47
2018-08-07T05:54:56.531Z,5.60
2018-08-07T05:57:25.458Z,6.67
2018-08-07T05:59:52.407Z,5.83
2018-08-07T06:02:19.375Z,6.20
2018-08-07T06:04:46.335Z,6.40
2018-08-07T06:07:20.571Z,7.13
2018-08-07T06:09:52.468Z,6.87
2018-08-07T06:12:19.393Z,6.83
2018-08-07T06:14:46.343Z,6.60
2018-08-07T06:17:13.416Z,6.80
2018-08-07T06:19:40.379Z,7.63
2018-08-07T06:22:07.957Z,7.17
2018-08-07T06:24:34.915Z,7.40
2018-08-07T06:27:01.859Z,7.50
2018-08-07T06:29:28.884Z,7.10
2018-08-07T06:31:55.883Z,6.83
2018-08-07T06:34:22.850Z,7.70
2018-08-07T06:36:50.807Z,7.37
2018-08-07T06:39:17.770Z,7.40
2018-08-07T06:41:45.003Z,7.83
2018-08-07T06:44:11.976Z,8.10
2018-08-07T06:46:39.900Z,7.90
2018-08-07T06:49:22.508Z,8.00
2018-08-07T06:51:49.847Z,8.10
2018-08-07T06:54:20.742Z,8.30
2018-08-07T06:56:52.779Z,7.70
2018-08-07T06:59:19.743Z,8.50
2018-08-07T07:01:47.415Z,7.77
2018-08-07T07:04:14.855Z,7.60
2018-08-07T07:06:41.858Z,8.00
2018-08-07T07:09:10.415Z,7.93
2018-08-07T07:11:37.413Z,7.50
2018-08-07T07:14:05.068Z,9.30
2018-08-07T07:16:32.047Z,8.17
2018-08-07T07:18:59.040Z,8.57
2018-08-07T07:21:26.051Z,7.97
2018-08-07T07:23:52.998Z,8.33
2018-08-07T07:26:26.243Z,8.70
2018-08-07T07:28:57.191Z,8.80
2018-08-07T07:31:26.201Z,8.70
2018-08-07T07:33:59.517Z,8.87
2018-08-07T07:36:31.023Z,8.30
2018-08-07T07:39:16.719Z,8.90
2018-08-07T07:41:45.670Z,7.70
2018-08-07T07:44:12.595Z,7.83
2018-08-07T07:46:39.595Z,8.53
2018-08-07T07:49:06.555Z,8.77
2018-08-07T07:51:33.488Z,8.03
2018-08-07T07:54:01.537Z,7.70
2018-08-07T07:56:28.442Z,7.60
2018-08-07T07:58:55.382Z,7.90
2018-08-07T08:01:23.367Z,7.50
2018-08-07T08:03:50.339Z,7.80
2018-08-07T08:06:17.271Z,7.33
2018-08-07T08:08:44.334Z,7.60
2018-08-07T08:11:11.286Z,7.63
2018-08-07T08:13:38.250Z,7.37
2018-08-07T08:16:05.354Z,7.47
2018-08-07T08:18:32.399Z,6.93
2018-08-07T08:20:59.338Z,6.50
2018-08-07T08:23:26.275Z,7.20
2018-08-07T08:25:53.228Z,6.90
2018-08-07T08:28:20.184Z,7.33
2018-08-07T08:30:47.169Z,8.20
2018-08-07T08:33:23.155Z,6.70
2018-08-07T08:35:59.718Z,7.10
2018-08-07T08:38:27.509Z,7.30
2018-08-07T08:40:59.293Z,7.10
2018-08-07T08:43:33.835Z,6.80
2018-08-07T08:46:00.828Z,7.30
2018-08-07T08:48:27.858Z,6.27
2018-08-07T08:50:54.767Z,7.13
2018-08-07T08:53:21.732Z,6.40
2018-08-07T08:55:48.683Z,7.60
2018-08-07T08:58:24.568Z,6.80
2018-08-07T09:00:56.099Z,6.20
2018-08-07T09:03:31.623Z,7.30
2018-08-07T09:06:04.129Z,6.73
2018-08-07T09:08:42.763Z,6.70
2018-08-07T09:11:10.482Z,6.43
2018-08-07T09:13:37.420Z,6.10
2018-08-07T09:16:04.383Z,6.07
2018-08-07T09:18:31.389Z,6.17
2018-08-07T09:20:58.437Z,6.20
2018-08-07T09:23:25.355Z,6.20
2018-08-07T09:25:52.467Z,6.40
2018-08-07T09:28:19.262Z,6.10
2018-08-07T09:30:46.224Z,6.53
2018-08-07T09:33:13.376Z,5.53
2018-08-07T09:35:41.059Z,6.80
2018-08-07T09:38:28.558Z,5.67
2018-08-07T09:40:56.900Z,6.10
2018-08-07T09:43:38.562Z,7.10
2018-08-07T09:46:08.544Z,7.20
2018-08-07T09:48:35.990Z,5.70
2018-08-07T09:51:03.009Z,7.40
2018-08-07T09:53:29.968Z,7.10
2018-08-07T09:55:56.991Z,6.40
2018-08-07T09:58:24.586Z,6.40
2018-08-07T10:00:57.186Z,7.53
2018-08-07T10:03:24.111Z,6.50
2018-08-07T10:05:51.055Z,5.93
2018-08-07T10:08:18.021Z,6.10
2018-08-07T10:10:44.979Z,6.40
2018-08-07T10:13:11.940Z,6.33
2018-08-07T10:15:38.892Z,7.03
2018-08-07T10:18:05.891Z,5.80
2018-08-07T10:20:32.886Z,6.17
2018-08-07T10:23:00.651Z,6.37
2018-08-07T10:25:27.839Z,6.47
2018-08-07T10:27:54.861Z,5.60
2018-08-07T10:30:22.982Z,5.73
2018-08-07T10:32:50.591Z,5.60
2018-08-07T10:35:17.600Z,5.87
2018-08-07T10:37:45.194Z,5.60
2018-08-07T10:40:13.630Z,5.63
2018-08-07T10:42:40.724Z,5.83
2018-08-07T10:45:22.583Z,5.83
2018-08-07T10:47:50.067Z,5.90
2018-08-07T10:50:22.618Z,6.17
2018-08-07T10:52:49.843Z,5.30
2018-08-07T10:55:17.458Z,6.00
2018-08-07T10:57:45.691Z,6.07
2018-08-07T11:00:17.799Z,5.90
2018-08-07T11:02:45.780Z,6.60
2018-08-07T11:05:12.807Z,5.60
2018-08-07T11:07:40.095Z,5.30
2018-08-07T11:10:08.352Z,5.70
2018-08-07T11:12:36.315Z,5.70
2018-08-07T11:15:06.767Z,5.80
2018-08-07T11:17:37.295Z,5.87
2018-08-07T11:20:16.089Z,5.87
2018-08-07T11:22:56.655Z,6.30
2018-08-07T11:25:32.299Z,5.90
2018-08-07T11:27:59.832Z,5.70
2018-08-07T11:30:27.884Z,6.30
2018-08-07T11:32:56.098Z,6.27
2018-08-07T11:35:30.693Z,5.80
2018-08-07T11:38:10.781Z,5.47
2018-08-07T11:40:41.350Z,5.50
2018-08-07T11:43:16.924Z,6.00
2018-08-07T11:45:44.813Z,6.07
2018-08-07T11:48:11.755Z,5.73
2018-08-07T11:50:38.707Z,5.90
2018-08-07T11:53:05.657Z,6.03
2018-08-07T11:55:32.671Z,5.80
2018-08-07T11:57:59.679Z,5.67
2018-08-07T12:00:30.473Z,6.10
2018-08-07T12:02:57.505Z,5.50
2018-08-07T12:05:24.482Z,5.90
2018-08-07T12:07:51.678Z,5.47
2018-08-07T12:10:27.195Z,5.67
2018-08-07T12:13:05.659Z,5.60
2018-08-07T12:15:35.911Z,6.00
2018-08-07T12:18:11.982Z,5.63
2018-08-07T12:20:48.135Z,6.10
2018-08-07T12:23:15.155Z,6.87
2018-08-07T12:25:42.092Z,6.10
2018-08-07T12:28:09.023Z,6.30
2018-08-07T12:30:36.043Z,5.90
2018-08-07T12:33:03.104Z,6.07
2018-08-07T12:35:30.147Z,5.80
2018-08-07T12:37:57.092Z,5.90
2018-08-07T12:40:26.662Z,6.53
2018-08-07T12:42:56.637Z,5.83
2018-08-07T12:45:23.588Z,5.67
2018-08-07T12:47:50.543Z,6.03
2018-08-07T12:50:26.986Z,6.13
2018-08-07T12:53:12.203Z,6.03
2018-08-07T12:55:40.803Z,5.80
2018-08-07T12:58:19.987Z,5.47
2018-08-07T13:00:55.462Z,6.23
2018-08-07T13:03:23.234Z,5.10
2018-08-07T13:05:57.465Z,5.73
2018-08-07T13:08:33.941Z,5.60
2018-08-07T13:11:01.064Z,6.40
2018-08-07T13:13:29.283Z,5.23
2018-08-07T13:15:56.319Z,5.23
2018-08-07T13:18:23.261Z,5.43
2018-08-07T13:20:50.295Z,5.00
2018-08-07T13:23:18.214Z,5.23
2018-08-07T13:25:45.179Z,5.30
2018-08-07T13:28:12.178Z,5.10
2018-08-07T13:30:39.207Z,5.80
2018-08-07T13:33:06.246Z,5.80
2018-08-07T13:35:33.195Z,4.80
2018-08-07T13:38:00.180Z,4.90
2018-08-07T13:40:27.333Z,4.13
2018-08-07T13:42:54.287Z,4.60
2018-08-07T13:45:26.160Z,4.03
2018-08-07T13:47:54.689Z,4.40
2018-08-07T13:50:22.972Z,4.40
2018-08-07T13:52:50.724Z,3.90
2018-08-07T13:55:18.682Z,3.53
2018-08-07T13:57:46.129Z,4.23
2018-08-07T14:00:21.030Z,3.70
2018-08-07T14:02:48.656Z,3.63
2018-08-07T14:05:18.743Z,4.33
2018-08-07T14:07:50.395Z,4.20
2018-08-07T14:10:26.941Z,3.97
2018-08-07T14:13:04.879Z,4.53
2018-08-07T14:15:32.010Z,4.20
2018-08-07T14:18:02.875Z,4.10
2018-08-07T14:20:40.043Z,4.57
2018-08-07T14:23:22.635Z,4.43
2018-08-07T14:25:57.991Z,4.90
2018-08-07T14:28:27.751Z,4.47
2018-08-07T14:31:05.320Z,4.67
2018-08-07T14:33:48.800Z,4.50
2018-08-07T14:36:16.789Z,4.57
2018-08-07T14:38:43.808Z,4.83
2018-08-07T14:41:10.732Z,4.77
2018-08-07T14:43:37.706Z,5.30
2018-08-07T14:46:05.434Z,4.93
2018-08-07T14:48:41.846Z,4.57
2018-08-07T14:51:12.640Z,4.93
2018-08-07T14:53:50.674Z,5.40
2018-08-07T14:56:17.688Z,4.60
2018-08-07T14:58:45.289Z,5.40
2018-08-07T15:01:15.391Z,4.93
2018-08-07T15:03:45.951Z,4.73
2018-08-07T15:06:16.096Z,4.43
2018-08-07T15:08:43.914Z,5.10
2018-08-07T15:11:10.923Z,4.97
2018-08-07T15:13:38.007Z,4.23
2018-08-07T15:16:05.032Z,5.33
2018-08-07T15:18:32.036Z,4.87
2018-08-07T15:20:59.015Z,4.90
2018-08-07T15:23:25.951Z,4.87
2018-08-07T15:25:52.930Z,4.70
2018-08-07T15:28:19.898Z,4.93
2018-08-07T15:30:46.864Z,4.87
2018-08-07T15:33:13.851Z,4.53
2018-08-07T15:35:40.920Z,4.40
2018-08-07T15:38:07.928Z,4.10
2018-08-07T15:40:34.887Z,4.13
2018-08-07T15:43:01.872Z,3.97
2018-08-07T15:45:28.836Z,4.30
2018-08-07T15:47:55.747Z,4.33
2018-08-07T15:50:22.812Z,4.60
2018-08-07T15:52:53.890Z,4.03
2018-08-07T15:55:22.323Z,4.23
2018-08-07T15:57:49.311Z,3.80
2018-08-07T16:00:20.554Z,3.80
2018-08-07T16:02:47.541Z,4.40
2018-08-07T16:05:14.763Z,3.97
2018-08-07T16:07:42.408Z,4.00
2018-08-07T16:10:12.370Z,4.20
2018-08-07T16:12:39.423Z,4.03
2018-08-07T16:15:07.520Z,3.73
2018-08-07T16:17:34.627Z,3.13
2018-08-07T16:20:02.230Z,3.87
2018-08-07T16:22:40.892Z,3.90
2018-08-07T16:25:16.951Z,3.57
2018-08-07T16:27:53.329Z,3.33
2018-08-07T16:30:23.642Z,3.73
2018-08-07T16:32:50.563Z,3.70
2018-08-07T16:35:17.543Z,3.13
2018-08-07T16:37:45.713Z,3.20
2018-08-07T16:40:19.013Z,3.00
2018-08-07T16:43:02.528Z,3.00
2018-08-07T16:45:29.986Z,3.20
2018-08-07T16:48:12.461Z,2.63
2018-08-07T16:50:42.444Z,2.63
2018-08-07T16:53:09.403Z,2.50
2018-08-07T16:55:36.392Z,2.67
2018-08-07T16:58:03.359Z,2.63
2018-08-07T17:00:30.305Z,3.10
2018-08-07T17:02:57.295Z,3.10
2018-08-07T17:05:24.935Z,3.00
2018-08-07T17:07:51.896Z,2.97
2018-08-07T17:10:24.911Z,3.33
2018-08-07T17:12:53.908Z,3.30
2018-08-07T17:15:26.685Z,3.00
2018-08-07T17:18:02.880Z,3.20
2018-08-07T17:20:34.741Z,3.37
2018-08-07T17:23:01.695Z,3.50
2018-08-07T17:25:28.663Z,3.50
2018-08-07T17:27:55.636Z,3.17
2018-08-07T17:30:25.505Z,2.80
2018-08-07T17:32:53.378Z,3.50
2018-08-07T17:35:22.276Z,3.53
2018-08-07T17:37:52.088Z,2.80
2018-08-07T17:40:20.595Z,3.20
2018-08-07T17:42:48.731Z,2.93
2018-08-07T17:45:19.859Z,3.20
2018-08-07T17:47:47.084Z,3.50
2018-08-07T17:50:21.432Z,3.70
2018-08-07T17:52:48.611Z,3.40
2018-08-07T17:55:15.740Z,3.37
2018-08-07T17:57:42.688Z,3.70
2018-08-07T18:00:11.824Z,2.97
2018-08-07T18:02:39.331Z,3.00
2018-08-07T18:05:07.187Z,3.03
2018-08-07T18:07:34.195Z,3.30
2018-08-07T18:10:01.137Z,3.10
2018-08-07T18:12:28.123Z,3.60
2018-08-07T18:14:55.045Z,3.30
2018-08-07T18:17:22.065Z,3.40
2018-08-07T18:19:49.145Z,3.60
2018-08-07T18:22:16.257Z,3.20
2018-08-07T18:24:43.281Z,3.13
2018-08-07T18:27:10.284Z,3.50
2018-08-07T18:29:37.215Z,3.57
2018-08-07T18:32:04.127Z,3.67
2018-08-07T18:34:31.116Z,3.20
2018-08-07T18:36:58.646Z,3.20
2018-08-07T18:39:25.648Z,3.30
2018-08-07T18:41:52.645Z,3.37
2018-08-07T18:44:21.014Z,3.80
2018-08-07T18:46:51.959Z,3.20
2018-08-07T18:49:18.907Z,3.27
2018-08-07T18:51:45.862Z,3.90
2018-08-07T18:54:12.821Z,3.53
2018-08-07T18:56:39.799Z,4.40
2018-08-07T18:59:07.088Z,3.30
2018-08-07T19:01:36.063Z,3.90
2018-08-07T19:04:03.991Z,3.80
2018-08-07T19:06:31.106Z,4.10
2018-08-07T19:08:58.176Z,3.60
2018-08-07T19:11:27.234Z,4.20
2018-08-07T19:13:54.347Z,3.93
2018-08-07T19:16:21.486Z,4.00
2018-08-07T19:18:48.605Z,4.10
2018-08-07T19:21:15.880Z,3.63
2018-08-07T19:23:44.027Z,4.50
2018-08-07T19:26:11.899Z,4.23
2018-08-07T19:28:39.852Z,4.40
2018-08-07T19:31:07.891Z,4.40
2018-08-07T19:33:35.408Z,4.57
2018-08-07T19:36:04.066Z,3.63
2018-08-07T19:38:32.917Z,3.87
2018-08-07T19:40:59.843Z,4.30
2018-08-07T19:43:26.810Z,3.97
2018-08-07T19:45:53.854Z,4.37
2018-08-07T19:48:20.715Z,4.83
2018-08-07T19:50:47.694Z,5.17
2018-08-07T19:53:15.045Z,4.40
2018-08-07T19:55:42.049Z,4.70
2018-08-07T19:58:08.975Z,5.00
2018-08-07T20:00:35.925Z,4.90
2018-08-07T20:03:05.047Z,4.57
2018-08-07T20:05:32.004Z,5.10
2018-08-07T20:07:58.988Z,5.80
2018-08-07T20:10:25.916Z,5.50
2018-08-07T20:12:52.871Z,4.63
2018-08-07T20:15:22.787Z,5.30
2018-08-07T20:17:51.170Z,4.70
2018-08-07T20:20:19.569Z,5.17
2018-08-07T20:22:46.540Z,5.50
2018-08-07T20:25:13.475Z,5.60
2018-08-07T20:27:40.435Z,5.43
2018-08-07T20:30:12.407Z,5.40
2018-08-07T20:32:41.372Z,5.30
2018-08-07T20:35:10.768Z,5.73
2018-08-07T20:37:41.238Z,5.10
2018-08-07T20:40:18.690Z,5.57
2018-08-07T20:42:52.835Z,5.43
2018-08-07T20:45:21.618Z,5.30
2018-08-07T20:47:55.891Z,4.90
2018-08-07T20:50:26.947Z,5.47
2018-08-07T20:53:08.912Z,5.40
2018-08-07T20:55:39.927Z,5.73
2018-08-07T20:58:11.538Z,4.83
2018-08-07T21:00:55.183Z,5.40
2018-08-07T21:03:31.985Z,5.67
2018-08-07T21:06:00.016Z,5.53
2018-08-07T21:08:44.531Z,5.80
2018-08-07T21:11:11.465Z,5.50
2018-08-07T21:13:38.412Z,5.53
2018-08-07T21:16:05.441Z,5.53
2018-08-07T21:18:32.335Z,5.37
2018-08-07T21:21:03.568Z,5.57
2018-08-07T21:23:36.011Z,6.10
2018-08-07T21:26:19.796Z,5.20
2018-08-07T21:28:51.194Z,6.30
2018-08-07T21:31:26.951Z,5.80
2018-08-07T21:34:03.102Z,5.20
2018-08-07T21:36:31.486Z,5.60
2018-08-07T21:39:07.032Z,5.13
2018-08-07T21:41:43.583Z,6.20
2018-08-07T21:44:13.995Z,5.20
2018-08-07T21:46:56.987Z,5.70
2018-08-07T21:49:26.431Z,5.43
2018-08-07T21:51:57.411Z,5.90
2018-08-07T21:54:25.710Z,5.17
2018-08-07T21:57:00.300Z,5.20
2018-08-07T21:59:30.743Z,5.63
2018-08-07T22:02:01.000Z,5.70
2018-08-07T22:04:37.851Z,5.40
2018-08-07T22:07:09.459Z,5.23
2018-08-07T22:09:48.451Z,5.00
2018-08-07T22:12:17.444Z,5.40
2018-08-07T22:14:57.039Z,5.47
2018-08-07T22:17:24.014Z,5.33
2018-08-07T22:19:58.806Z,6.50
2018-08-07T22:22:33.778Z,4.97
2018-08-07T22:25:01.462Z,5.87
2018-08-07T22:27:28.442Z,5.60
2018-08-07T22:29:55.389Z,5.17
2018-08-07T22:32:22.333Z,4.97
2018-08-07T22:34:50.019Z,5.53
2018-08-07T22:37:17.529Z,5.50
2018-08-07T22:39:44.445Z,5.87
2018-08-07T22:42:11.455Z,6.70
2018-08-07T22:44:38.349Z,5.20
2018-08-07T22:47:07.650Z,5.03
2018-08-07T22:49:47.718Z,5.00
2018-08-07T22:52:18.833Z,4.97
2018-08-07T22:54:54.545Z,4.87
2018-08-07T22:57:22.102Z,5.83
2018-08-07T22:59:49.056Z,4.50
2018-08-07T23:02:17.074Z,5.37
2018-08-07T23:04:48.317Z,4.40
2018-08-07T23:07:17.734Z,4.23
2018-08-07T23:09:46.419Z,4.90
2018-08-07T23:12:14.996Z,4.40
2018-08-07T23:14:42.020Z,5.13
2018-08-07T23:17:09.966Z,4.57
2018-08-07T23:19:37.538Z,4.17
2018-08-07T23:22:04.519Z,4.70
2018-08-07T23:24:32.295Z,4.40
2018-08-07T23:26:59.249Z,4.40
2018-08-07T23:29:26.193Z,5.10
2018-08-07T23:31:53.150Z,4.90
2018-08-07T23:34:20.075Z,4.70
2018-08-07T23:36:47.587Z,4.67
2018-08-07T23:39:14.538Z,4.67
2018-08-07T23:41:41.505Z,5.10
2018-08-07T23:44:09.999Z,4.60
2018-08-07T23:46:37.030Z,5.43
2018-08-07T23:49:09.198Z,4.83
2018-08-07T23:51:45.172Z,5.70
2018-08-07T23:54:20.329Z,5.27
2018-08-07T23:56:52.846Z,5.90
2018-08-07T23:59:21.313Z,5.73
